Chemung, New York
Current Conditions -  °F | °C
As of 6:23 AM on Sunday 21 Dec 2014 (Local Time) from KELM Reporting Station
Overcast Overcast  
Wind Chill: 27°   Ceiling: 3000
Heat Index: 27°   Visibility: 10mi
Dew Point: 22°   Wind: 0mph
Humidity: 81%   Direction: NA
Pressure: 30.27"   Gusts: NA
Location:  42.01°N, 76.62°W
Report Text: KELM 211123Z 00000KT 10SM SCT022 OVC030 M03/M06 A3027 RMK AO2 T10281056
Loading
Personal Weather Stations






























Interactive Weather Map New forecast layout! Learn more

10-Day Weather Forecast

Advertisements
Track Severe Weather on mobile